Time;durP1;ratioP1;P1;durP2;ratioP2;P2;SDS_P1;SDS_P2;PMS_P1;PMS_P2;Temp;Humidity;BMP_temperature;BMP_pressure;BME280_temperature;BME280_humidity;BME280_pressure;Samples;Min_cycle;Max_cycle;Signal;HPM_P1;HPM_P2
2022/10/10 00:00:36;;;;;;;6.90;3.42;;;7.90;99.90;;;;;;5056062;28;20061;-83
2022/10/10 00:03:02;;;;;;;8.63;3.85;;;7.90;99.90;;;;;;5048896;28;20042;-84
2022/10/10 00:05:28;;;;;;;5.03;4.13;;;7.90;99.90;;;;;;5049812;28;20681;-84
2022/10/10 00:07:53;;;;;;;7.60;3.90;;;7.80;99.90;;;;;;5043367;28;20045;-83
2022/10/10 00:10:19;;;;;;;6.40;3.92;;;7.80;99.90;;;;;;5046379;28;20037;-84
2022/10/10 00:12:46;;;;;;;6.53;3.53;;;7.80;99.90;;;;;;5031152;28;20049;-83
2022/10/10 00:15:13;;;;;;;13.20;3.60;;;7.70;99.90;;;;;;5047352;28;20041;-83
2022/10/10 00:17:41;;;;;;;8.00;3.58;;;7.70;99.90;;;;;;5053861;28;20638;-83
2022/10/10 00:20:07;;;;;;;7.03;3.83;;;7.70;99.90;;;;;;5044663;28;20064;-84
2022/10/10 00:22:33;;;;;;;5.30;4.03;;;7.70;99.90;;;;;;5043565;28;20044;-83
2022/10/10 00:24:59;;;;;;;7.28;4.22;;;7.70;99.90;;;;;;5041996;28;20143;-83
2022/10/10 00:27:24;;;;;;;7.18;3.40;;;7.70;99.90;;;;;;5037207;28;20041;-84
2022/10/10 00:29:50;;;;;;;9.32;3.90;;;7.70;99.90;;;;;;5050716;28;20055;-83
2022/10/10 00:32:16;;;;;;;7.05;3.60;;;7.60;99.90;;;;;;5046246;28;20060;-83
2022/10/10 00:34:41;;;;;;;8.38;3.55;;;7.60;99.90;;;;;;5030100;28;20029;-84
2022/10/10 00:37:07;;;;;;;6.40;3.58;;;7.60;99.90;;;;;;5050420;28;20045;-83
2022/10/10 00:39:32;;;;;;;6.28;3.45;;;7.60;99.90;;;;;;5035805;28;20041;-83
2022/10/10 00:41:58;;;;;;;5.45;3.83;;;7.60;99.90;;;;;;5052772;28;20105;-83
2022/10/10 00:44:26;;;;;;;7.85;3.88;;;7.60;99.90;;;;;;5046274;28;20115;-83
2022/10/10 00:46:52;;;;;;;6.82;3.70;;;7.60;99.90;;;;;;5045948;28;20112;-83
2022/10/10 00:49:21;;;;;;;7.82;3.65;;;7.60;99.90;;;;;;5038308;28;20064;-83
2022/10/10 00:51:51;;;;;;;5.72;3.92;;;7.60;99.90;;;;;;5047777;28;20190;-83
2022/10/10 00:54:19;;;;;;;4.80;3.40;;;7.60;99.90;;;;;;5035681;28;20045;-83
2022/10/10 00:57:04;;;;;;;5.47;3.88;;;7.60;99.90;;;;;;5045675;28;20051;-83
2022/10/10 00:59:32;;;;;;;7.13;3.55;;;7.60;99.90;;;;;;5067355;28;20052;-83
2022/10/10 01:01:58;;;;;;;9.13;3.55;;;7.60;99.90;;;;;;5045968;28;20075;-82
2022/10/10 01:04:30;;;;;;;9.85;4.22;;;7.70;99.90;;;;;;5042134;28;20092;-83
2022/10/10 01:06:57;;;;;;;6.65;3.85;;;7.70;99.90;;;;;;5048883;28;20053;-82
2022/10/10 01:09:22;;;;;;;5.53;3.67;;;7.60;99.90;;;;;;5042569;28;20057;-83
2022/10/10 01:11:59;;;;;;;5.63;4.05;;;7.60;99.90;;;;;;5030894;28;20051;-83
2022/10/10 01:14:39;;;;;;;6.25;3.92;;;7.70;99.90;;;;;;5043828;28;20070;-83
2022/10/10 01:17:13;;;;;;;5.70;3.15;;;7.60;99.90;;;;;;5052384;28;20093;-83
2022/10/10 01:19:53;;;;;;;4.95;2.88;;;7.60;99.90;;;;;;5034597;28;20041;-82
2022/10/10 01:22:19;;;;;;;4.80;3.22;;;7.60;99.90;;;;;;5062705;28;20369;-83
2022/10/10 01:25:06;;;;;;;9.05;4.00;;;7.60;99.90;;;;;;5053245;28;20084;-83
2022/10/10 01:27:44;;;;;;;6.70;4.13;;;7.60;99.90;;;;;;5045982;28;20052;-83
2022/10/10 01:30:15;;;;;;;5.80;3.88;;;7.60;99.90;;;;;;5046838;28;20049;-83
2022/10/10 01:33:13;;;;;;;8.40;3.03;;;7.50;99.90;;;;;;5045392;28;20049;-83
2022/10/10 01:35:55;;;;;;;7.53;4.38;;;7.50;99.90;;;;;;5030172;28;20142;-83
2022/10/10 01:38:28;;;;;;;;;;;7.50;99.90;;;;;;5047223;28;20041;-83
2022/10/10 01:41:13;;;;;;;8.38;4.15;;;7.50;99.90;;;;;;5048835;28;19952;-82
2022/10/10 01:43:39;;;;;;;5.03;3.63;;;7.40;99.90;;;;;;5051102;28;20041;-83
2022/10/10 01:46:14;;;;;;;7.72;4.15;;;7.40;99.90;;;;;;5025578;28;20051;-83
2022/10/10 01:48:43;;;;;;;9.35;3.92;;;7.40;99.90;;;;;;5049555;28;20040;-82
2022/10/10 01:51:11;;;;;;;4.18;3.25;;;7.40;99.90;;;;;;5051309;28;20048;-83
2022/10/10 01:53:58;;;;;;;5.85;3.50;;;7.40;99.90;;;;;;5033253;28;20046;-83
2022/10/10 01:56:37;;;;;;;6.20;4.35;;;7.40;99.90;;;;;;5028943;28;20040;-83
2022/10/10 01:59:38;;;;;;;6.60;3.78;;;7.40;99.90;;;;;;5032420;28;20056;-82
2022/10/10 02:02:31;;;;;;;9.15;4.22;;;7.30;99.90;;;;;;5064465;28;20052;-83
2022/10/10 02:05:19;;;;;;;5.75;4.03;;;7.40;99.90;;;;;;5032915;28;20050;-83
2022/10/10 02:08:26;;;;;;;10.60;4.43;;;7.40;99.90;;;;;;5047956;28;20057;-83
2022/10/10 02:10:57;;;;;;;9.57;4.10;;;7.40;99.90;;;;;;5032313;28;20090;-83
2022/10/10 02:13:31;;;;;;;6.65;3.53;;;7.40;99.90;;;;;;5032250;28;20606;-83
2022/10/10 02:16:00;;;;;;;5.90;3.78;;;7.30;99.90;;;;;;5048638;28;20080;-83
2022/10/10 02:18:29;;;;;;;6.05;4.03;;;7.30;99.90;;;;;;5034925;28;20125;-83
2022/10/10 02:20:56;;;;;;;7.97;4.05;;;7.30;99.90;;;;;;5047746;28;20041;-83
2022/10/10 02:23:21;;;;;;;6.93;3.80;;;7.30;99.90;;;;;;5044308;28;20538;-83
2022/10/10 02:25:52;;;;;;;6.72;3.65;;;7.30;99.90;;;;;;5049107;28;20044;-83
2022/10/10 02:28:40;;;;;;;8.75;4.70;;;7.30;99.90;;;;;;5041128;28;20045;-84
2022/10/10 02:31:10;;;;;;;7.53;5.00;;;7.40;99.90;;;;;;5039448;28;20384;-84
2022/10/10 02:33:55;;;;;;;5.60;3.90;;;7.40;99.90;;;;;;5023418;28;20396;-83
2022/10/10 02:36:23;;;;;;;9.68;4.30;;;7.30;99.90;;;;;;5047274;28;20053;-83
2022/10/10 02:38:50;;;;;;;7.47;4.30;;;7.30;99.90;;;;;;5046802;28;20614;-84
2022/10/10 02:41:18;;;;;;;10.45;3.92;;;7.20;99.90;;;;;;5045557;28;20507;-83
2022/10/10 02:43:44;;;;;;;8.20;4.43;;;7.20;99.90;;;;;;5027186;28;20048;-83
2022/10/10 02:46:12;;;;;;;6.07;4.18;;;7.20;99.90;;;;;;5031903;28;20056;-83
2022/10/10 02:48:39;;;;;;;9.63;3.92;;;7.20;99.90;;;;;;5051435;28;20053;-83
2022/10/10 02:51:05;;;;;;;5.97;3.92;;;7.20;99.90;;;;;;5045884;28;20075;-83
2022/10/10 02:53:31;;;;;;;7.15;4.20;;;7.20;99.90;;;;;;5040284;28;20053;-83
2022/10/10 02:55:56;;;;;;;10.57;4.47;;;7.10;99.90;;;;;;5049864;28;20048;-82
2022/10/10 02:58:22;;;;;;;6.07;3.50;;;7.20;99.90;;;;;;5027285;28;20102;-82
2022/10/10 03:00:48;;;;;;;8.55;4.45;;;7.10;99.90;;;;;;5051464;28;20088;-84
2022/10/10 03:03:14;;;;;;;6.50;3.90;;;7.10;99.90;;;;;;5052447;28;20072;-82
2022/10/10 03:05:39;;;;;;;6.60;3.90;;;7.10;99.90;;;;;;5034457;28;20416;-82
2022/10/10 03:08:05;;;;;;;6.72;3.50;;;7.10;99.90;;;;;;5051359;28;20176;-83
2022/10/10 03:10:31;;;;;;;6.82;4.88;;;7.10;99.90;;;;;;5047328;28;20126;-83
2022/10/10 03:12:56;;;;;;;7.03;4.22;;;7.10;99.90;;;;;;5049765;28;20044;-83
2022/10/10 03:15:22;;;;;;;7.88;4.20;;;7.20;99.90;;;;;;5042127;28;20072;-83
2022/10/10 03:17:48;;;;;;;8.05;4.40;;;7.20;99.90;;;;;;5033479;28;20404;-83
2022/10/10 03:20:13;;;;;;;6.60;4.53;;;7.10;99.90;;;;;;5040921;28;20054;-83
2022/10/10 03:22:39;;;;;;;8.90;4.55;;;7.10;99.90;;;;;;5044105;28;20074;-83
2022/10/10 03:25:05;;;;;;;8.05;5.15;;;7.20;99.90;;;;;;5039562;28;20056;-83
2022/10/10 03:27:31;;;;;;;10.43;4.80;;;7.20;99.90;;;;;;5046795;28;20095;-83
2022/10/10 03:29:56;;;;;;;11.27;4.03;;;7.20;99.90;;;;;;5039924;28;20053;-82
2022/10/10 03:32:22;;;;;;;6.15;4.25;;;7.20;99.90;;;;;;5039032;28;20043;-82
2022/10/10 03:34:48;;;;;;;9.05;4.88;;;7.10;99.90;;;;;;5041398;28;20060;-83
2022/10/10 03:37:13;;;;;;;10.05;4.82;;;7.20;99.90;;;;;;5039212;28;20060;-83
2022/10/10 03:39:39;;;;;;;7.35;4.25;;;7.10;99.90;;;;;;5042126;28;20599;-83
2022/10/10 03:42:04;;;;;;;9.90;5.15;;;7.20;99.90;;;;;;5039311;28;20049;-83
2022/10/10 03:44:30;;;;;;;10.43;4.75;;;7.10;99.90;;;;;;5022968;28;20048;-83
2022/10/10 03:46:56;;;;;;;13.23;5.13;;;7.10;99.90;;;;;;5030091;28;20106;-83
2022/10/10 03:49:21;;;;;;;7.65;4.47;;;7.20;99.90;;;;;;5027365;28;20065;-83
2022/10/10 03:51:47;;;;;;;7.15;4.40;;;7.10;99.90;;;;;;5023066;28;20057;-83
2022/10/10 03:54:13;;;;;;;9.68;4.93;;;7.10;99.90;;;;;;5021941;28;20043;-83
2022/10/10 03:56:38;;;;;;;6.53;4.25;;;7.10;99.90;;;;;;5023907;28;20101;-83
2022/10/10 03:59:05;;;;;;;9.13;4.32;;;7.10;99.90;;;;;;5022049;28;20060;-83
2022/10/10 04:01:32;;;;;;;8.65;4.82;;;7.10;99.90;;;;;;5044640;28;20061;-83
2022/10/10 04:03:57;;;;;;;6.43;4.78;;;7.10;99.90;;;;;;5060496;28;20041;-83
2022/10/10 04:06:26;;;;;;;10.45;5.28;;;7.10;99.90;;;;;;5041860;28;20075;-83
2022/10/10 04:08:52;;;;;;;8.23;4.60;;;7.10;99.90;;;;;;5060430;28;20056;-82
2022/10/10 04:11:17;;;;;;;8.75;4.32;;;7.00;99.90;;;;;;5050530;28;20080;-83
2022/10/10 04:13:43;;;;;;;8.65;4.95;;;7.00;99.90;;;;;;5039418;28;20050;-82
2022/10/10 04:16:09;;;;;;;7.20;4.25;;;7.00;99.90;;;;;;5035004;28;20053;-82
2022/10/10 04:18:34;;;;;;;7.32;4.45;;;7.00;99.90;;;;;;5030900;28;20488;-83
2022/10/10 04:21:02;;;;;;;10.80;5.22;;;7.00;99.90;;;;;;5050149;28;20104;-83
2022/10/10 04:23:28;;;;;;;7.57;4.93;;;7.00;99.90;;;;;;5038243;28;20053;-82
2022/10/10 04:25:53;;;;;;;10.38;4.82;;;7.00;99.90;;;;;;5043705;28;20072;-83
2022/10/10 04:28:19;;;;;;;7.63;4.78;;;7.00;99.90;;;;;;5046613;28;20140;-83
2022/10/10 04:30:45;;;;;;;8.98;5.00;;;7.00;99.90;;;;;;5040698;28;20171;-83
2022/10/10 04:33:11;;;;;;;9.95;5.45;;;7.00;99.90;;;;;;5029497;28;20174;-82
2022/10/10 04:35:37;;;;;;;7.93;4.40;;;6.90;99.90;;;;;;5039479;28;20049;-83
2022/10/10 04:38:04;;;;;;;7.97;4.00;;;6.90;99.90;;;;;;5046072;28;20163;-83
2022/10/10 04:40:31;;;;;;;10.30;5.40;;;6.90;99.90;;;;;;5039957;28;20049;-82
2022/10/10 04:42:56;;;;;;;11.10;4.95;;;6.90;99.90;;;;;;5047143;28;20061;-82
2022/10/10 04:45:25;;;;;;;13.52;5.75;;;6.90;99.90;;;;;;5047384;28;20072;-82
2022/10/10 04:47:55;;;;;;;9.63;5.03;;;6.80;99.90;;;;;;5040538;28;20368;-81
2022/10/10 04:50:21;;;;;;;10.95;5.38;;;6.80;99.90;;;;;;5043880;28;20114;-82
2022/10/10 04:52:47;;;;;;;9.95;5.53;;;6.70;99.90;;;;;;5027907;28;20410;-84
2022/10/10 04:55:13;;;;;;;11.40;6.03;;;6.70;99.90;;;;;;5045761;28;20081;-84
2022/10/10 04:57:39;;;;;;;9.82;5.00;;;6.70;99.90;;;;;;5040477;28;20071;-84
2022/10/10 05:00:06;;;;;;;11.05;5.32;;;6.60;99.90;;;;;;5035785;28;20091;-85
2022/10/10 05:02:32;;;;;;;10.82;5.53;;;6.70;99.90;;;;;;5039128;28;20069;-84
2022/10/10 05:04:57;;;;;;;9.50;5.43;;;6.70;99.90;;;;;;5032655;28;20060;-84
2022/10/10 05:07:23;;;;;;;9.18;5.57;;;6.60;99.90;;;;;;5037839;28;20117;-85
2022/10/10 05:09:49;;;;;;;12.82;5.82;;;6.60;99.90;;;;;;5022322;28;20045;-85
2022/10/10 05:12:15;;;;;;;11.00;5.63;;;6.60;99.90;;;;;;5057278;28;20071;-85
2022/10/10 05:14:41;;;;;;;63.17;30.92;;;6.60;99.90;;;;;;5049087;28;20502;-85
2022/10/10 05:17:07;;;;;;;11.90;6.60;;;6.60;99.90;;;;;;5045150;28;20052;-85
2022/10/10 05:19:33;;;;;;;26.63;12.15;;;6.60;99.90;;;;;;5027546;28;20051;-85
2022/10/10 05:21:58;;;;;;;13.43;5.53;;;6.60;99.90;;;;;;5041499;28;20053;-85
2022/10/10 05:24:24;;;;;;;11.73;6.30;;;6.50;99.90;;;;;;5037501;28;20073;-84
2022/10/10 05:26:50;;;;;;;12.68;6.25;;;6.50;99.90;;;;;;5040797;28;20423;-84
2022/10/10 05:29:15;;;;;;;14.13;6.57;;;6.50;99.90;;;;;;5024327;28;20038;-84
2022/10/10 05:31:41;;;;;;;14.90;6.57;;;6.50;99.90;;;;;;5041500;28;20045;-85
2022/10/10 05:34:12;;;;;;;13.90;6.60;;;6.50;99.90;;;;;;5042426;28;20436;-84
2022/10/10 05:36:38;;;;;;;24.75;11.30;;;6.50;99.90;;;;;;5042659;28;20083;-84
2022/10/10 05:39:04;;;;;;;11.98;7.30;;;6.40;99.90;;;;;;5027782;28;20049;-84
2022/10/10 05:41:30;;;;;;;10.23;6.10;;;6.50;99.90;;;;;;5029432;28;20049;-84
2022/10/10 05:43:55;;;;;;;11.30;6.25;;;6.40;99.90;;;;;;5047258;28;20053;-86
2022/10/10 05:46:23;;;;;;;11.50;5.78;;;6.50;99.90;;;;;;5038819;28;20045;-83
2022/10/10 05:48:50;;;;;;;11.27;5.65;;;6.50;99.90;;;;;;5038581;28;20044;-84
2022/10/10 05:51:15;;;;;;;9.65;5.82;;;6.50;99.90;;;;;;5035373;28;20095;-83
2022/10/10 05:53:41;;;;;;;10.00;6.32;;;6.50;99.90;;;;;;5036073;28;20460;-82
2022/10/10 05:56:07;;;;;;;13.98;5.50;;;6.50;99.90;;;;;;5039617;28;20056;-83
2022/10/10 05:58:33;;;;;;;11.60;5.45;;;6.50;99.90;;;;;;5049622;28;20045;-84
2022/10/10 06:01:06;;;;;;;12.90;5.82;;;6.50;99.90;;;;;;5044794;28;20077;-83
2022/10/10 06:03:33;;;;;;;11.38;5.80;;;6.50;99.90;;;;;;5056373;28;20064;-83
2022/10/10 06:05:59;;;;;;;13.55;6.22;;;6.50;99.90;;;;;;5040052;28;20064;-83
2022/10/10 06:08:25;;;;;;;10.48;5.45;;;6.50;99.90;;;;;;5039755;28;20049;-83
2022/10/10 06:10:51;;;;;;;11.50;6.00;;;6.50;99.90;;;;;;5056796;28;20055;-83
2022/10/10 06:13:18;;;;;;;9.90;4.68;;;6.60;99.90;;;;;;5057431;28;20052;-83
2022/10/10 06:15:43;;;;;;;13.52;6.00;;;6.60;99.90;;;;;;5044904;28;20049;-83
2022/10/10 06:18:09;;;;;;;12.18;5.43;;;6.60;99.90;;;;;;5021221;28;20094;-83
2022/10/10 06:20:39;;;;;;;13.82;5.85;;;6.60;99.90;;;;;;5038108;28;20060;-84
2022/10/10 06:23:06;;;;;;;14.20;6.05;;;6.70;99.90;;;;;;5023205;28;20056;-83
2022/10/10 06:25:34;;;;;;;10.20;5.28;;;6.70;99.90;;;;;;5049620;28;20518;-84
2022/10/10 06:28:00;;;;;;;18.73;5.93;;;6.70;99.90;;;;;;5041944;28;20095;-83
2022/10/10 06:30:26;;;;;;;11.55;6.05;;;6.80;99.90;;;;;;5051545;28;20057;-83
2022/10/10 06:32:52;;;;;;;9.23;5.47;;;6.80;99.90;;;;;;5060103;28;20454;-85
2022/10/10 06:35:18;;;;;;;10.32;5.50;;;6.90;99.90;;;;;;5053348;28;20075;-85
2022/10/10 06:37:43;;;;;;;10.77;5.35;;;6.90;99.90;;;;;;5039126;28;20075;-83
2022/10/10 06:40:09;;;;;;;8.98;5.65;;;6.90;99.90;;;;;;5040028;28;20049;-83
2022/10/10 06:42:35;;;;;;;11.25;5.60;;;7.00;99.90;;;;;;5025299;28;20049;-83
2022/10/10 06:45:00;;;;;;;12.25;5.68;;;7.00;99.90;;;;;;5046560;28;20472;-83
2022/10/10 06:47:26;;;;;;;10.20;5.28;;;7.10;99.90;;;;;;5051737;28;20037;-83
2022/10/10 06:49:52;;;;;;;11.20;6.05;;;7.20;99.90;;;;;;5059338;28;20055;-83
2022/10/10 06:52:18;;;;;;;8.63;5.60;;;7.20;99.90;;;;;;5044052;28;20053;-85
2022/10/10 06:54:44;;;;;;;14.60;6.10;;;7.20;99.90;;;;;;5059734;28;20087;-84
2022/10/10 06:57:10;;;;;;;9.48;5.50;;;7.30;99.90;;;;;;5044174;28;20049;-84
2022/10/10 06:59:35;;;;;;;15.32;5.78;;;7.40;99.90;;;;;;5023293;28;20044;-84
2022/10/10 07:02:01;;;;;;;11.43;6.32;;;7.40;99.90;;;;;;5072022;28;20080;-84
2022/10/10 07:04:27;;;;;;;8.07;5.15;;;7.50;99.90;;;;;;5018697;28;20505;-85
2022/10/10 07:06:52;;;;;;;12.10;5.65;;;7.60;99.90;;;;;;5020904;28;20060;-85
2022/10/10 07:09:19;;;;;;;10.57;5.68;;;7.70;99.90;;;;;;5040397;28;20515;-84
2022/10/10 07:11:45;;;;;;;8.32;4.82;;;7.80;99.90;;;;;;5039351;28;20088;-84
2022/10/10 07:14:13;;;;;;;13.95;5.50;;;7.90;99.90;;;;;;5039778;28;20049;-85
2022/10/10 07:16:39;;;;;;;11.73;5.80;;;8.00;99.90;;;;;;5039934;28;20451;-85
2022/10/10 07:19:05;;;;;;;13.55;5.15;;;8.00;99.90;;;;;;5050796;28;20044;-83
2022/10/10 07:21:31;;;;;;;17.60;7.35;;;8.10;99.90;;;;;;5044542;28;20049;-84
2022/10/10 07:23:57;;;;;;;12.73;5.80;;;8.20;99.90;;;;;;5041093;28;20279;-83
2022/10/10 07:26:26;;;;;;;10.90;5.80;;;8.20;99.90;;;;;;5049485;28;20056;-85
2022/10/10 07:28:52;;;;;;;9.18;5.25;;;8.30;99.90;;;;;;5045892;28;20087;-83
2022/10/10 07:31:18;;;;;;;10.45;5.90;;;8.30;99.90;;;;;;5048921;28;20052;-84
2022/10/10 07:33:46;;;;;;;12.10;4.75;;;8.40;99.90;;;;;;5038513;28;20046;-84
2022/10/10 07:36:12;;;;;;;11.07;5.40;;;8.40;99.90;;;;;;5042031;28;20076;-84
2022/10/10 07:38:38;;;;;;;13.27;5.43;;;8.50;99.90;;;;;;5023687;28;20045;-84
2022/10/10 07:41:09;;;;;;;10.45;5.43;;;8.60;99.90;;;;;;5040577;28;20487;-84
2022/10/10 07:43:36;;;;;;;10.10;5.47;;;8.70;99.90;;;;;;5054187;28;20136;-85
2022/10/10 07:46:02;;;;;;;12.15;5.90;;;8.70;99.90;;;;;;5045007;28;20055;-83
2022/10/10 07:48:29;;;;;;;8.85;5.25;;;8.90;99.90;;;;;;5038646;28;20128;-84
2022/10/10 07:50:55;;;;;;;12.02;6.05;;;9.00;99.90;;;;;;5032356;28;20044;-85
2022/10/10 07:53:21;;;;;;;9.43;5.10;;;9.10;99.90;;;;;;5043501;28;20085;-85
2022/10/10 07:55:46;;;;;;;9.52;5.13;;;9.10;99.90;;;;;;5024208;28;20061;-85
2022/10/10 07:58:13;;;;;;;8.77;5.20;;;9.20;99.90;;;;;;5034055;28;20055;-85
2022/10/10 08:00:42;;;;;;;8.20;5.25;;;9.30;99.90;;;;;;5050819;28;20052;-86
2022/10/10 08:03:08;;;;;;;8.38;5.15;;;9.30;99.90;;;;;;5038834;28;20041;-86
2022/10/10 08:05:42;;;;;;;9.25;5.38;;;9.40;99.90;;;;;;5038448;28;20479;-86
2022/10/10 08:08:09;;;;;;;13.80;5.82;;;9.50;99.90;;;;;;5041641;28;20049;-86
2022/10/10 08:10:36;;;;;;;8.73;4.95;;;9.50;99.90;;;;;;5042572;28;20479;-87
2022/10/10 08:13:02;;;;;;;10.02;5.25;;;9.70;99.90;;;;;;5030106;28;20084;-87
2022/10/10 08:15:27;;;;;;;10.10;5.05;;;9.70;99.90;;;;;;5037889;28;20056;-87
2022/10/10 08:17:53;;;;;;;10.55;5.18;;;9.80;99.90;;;;;;5043758;28;20037;-87
2022/10/10 08:20:19;;;;;;;8.90;5.10;;;9.80;99.90;;;;;;5057973;28;20084;-86
2022/10/10 08:22:45;;;;;;;12.90;5.85;;;9.90;99.90;;;;;;5006620;28;20053;-86
2022/10/10 08:25:10;;;;;;;9.48;5.40;;;9.90;99.90;;;;;;5022720;28;20446;-88
2022/10/10 08:27:36;;;;;;;8.23;5.18;;;10.00;99.90;;;;;;5038521;28;20049;-88
2022/10/10 08:30:02;;;;;;;13.50;5.47;;;10.10;99.90;;;;;;5022440;28;20057;-85
2022/10/10 08:32:28;;;;;;;12.35;5.68;;;10.10;99.90;;;;;;5037900;28;20057;-86
2022/10/10 08:34:54;;;;;;;10.30;5.07;;;10.30;99.90;;;;;;5041077;28;20055;-86
2022/10/10 08:37:19;;;;;;;16.23;6.22;;;10.50;99.90;;;;;;5039352;28;20065;-85
2022/10/10 08:39:45;;;;;;;15.30;5.43;;;10.80;99.90;;;;;;5019826;28;20045;-83
2022/10/10 08:42:21;;;;;;;9.10;5.40;;;10.90;99.90;;;;;;5036544;28;20052;-84
2022/10/10 08:44:55;;;;;;;11.18;5.22;;;11.00;99.90;;;;;;5044617;28;20044;-85
2022/10/10 08:47:48;;;;;;;8.18;5.22;;;11.10;99.90;;;;;;5056844;28;20059;-86
2022/10/10 08:50:49;;;;;;;13.45;5.80;;;11.30;99.90;;;;;;5054755;28;20072;-86
2022/10/10 08:53:22;;;;;;;11.73;6.05;;;11.40;99.90;;;;;;5057329;28;20117;-86
2022/10/10 08:55:49;;;;;;;9.82;5.80;;;11.60;99.90;;;;;;5048362;28;20045;-86
2022/10/10 08:58:29;;;;;;;16.05;5.63;;;11.70;99.90;;;;;;5039012;28;20057;-85
2022/10/10 09:00:58;;;;;;;10.38;5.45;;;11.90;99.90;;;;;;5029357;28;20056;-85
2022/10/10 09:03:43;;;;;;;10.35;4.82;;;12.00;99.90;;;;;;5038665;28;20045;-86
2022/10/10 09:06:37;;;;;;;10.40;5.68;;;12.20;99.90;;;;;;5032953;28;20045;-86
2022/10/10 09:09:13;;;;;;;7.28;4.88;;;12.30;99.90;;;;;;5066266;28;20521;-86
2022/10/10 09:11:48;;;;;;;15.30;5.00;;;12.40;99.90;;;;;;5069821;28;20060;-86
2022/10/10 09:14:58;;;;;;;12.45;5.82;;;12.50;99.90;;;;;;5063008;28;20051;-86
2022/10/10 09:17:50;;;;;;;8.02;4.47;;;12.60;99.90;;;;;;5058639;28;20048;-86
2022/10/10 09:20:19;;;;;;;8.93;4.82;;;12.80;99.90;;;;;;5037079;28;20049;-86
2022/10/10 09:23:01;;;;;;;7.38;4.43;;;12.90;99.90;;;;;;5021036;28;20059;-86
2022/10/10 09:25:49;;;;;;;11.55;6.20;;;13.10;99.90;;;;;;5021829;28;20058;-86
2022/10/10 09:28:28;;;;;;;8.05;5.05;;;13.40;99.90;;;;;;5037902;28;20117;-86
2022/10/10 09:30:57;;;;;;;16.00;5.43;;;13.90;99.90;;;;;;5037696;28;20045;-86
2022/10/10 09:33:37;;;;;;;9.20;5.00;;;14.50;99.90;;;;;;5037337;28;20053;-86
2022/10/10 09:36:08;;;;;;;7.22;5.00;;;15.00;99.90;;;;;;5037437;28;20113;-86
2022/10/10 09:38:41;;;;;;;8.70;4.50;;;15.80;99.90;;;;;;5020579;28;20120;-86
2022/10/10 09:41:12;;;;;;;7.85;4.70;;;16.60;99.90;;;;;;5036824;28;20096;-86
2022/10/10 09:43:39;;;;;;;10.85;4.80;;;17.10;99.90;;;;;;5038139;28;20076;-86
2022/10/10 09:46:05;;;;;;;9.80;5.20;;;17.40;99.90;;;;;;5038317;28;20069;-86
2022/10/10 09:48:35;;;;;;;5.47;4.22;;;17.40;99.90;;;;;;5049144;28;20101;-87
2022/10/10 09:51:07;;;;;;;7.72;4.43;;;17.20;99.90;;;;;;5039219;28;20046;-86
2022/10/10 09:53:33;;;;;;;10.07;4.25;;;16.90;99.90;;;;;;5038731;28;20041;-87
2022/10/10 09:55:59;;;;;;;8.93;5.07;;;16.70;99.90;;;;;;5018949;28;20044;-86
2022/10/10 09:58:34;;;;;;;6.97;4.40;;;16.40;99.90;;;;;;5011269;28;20492;-85
2022/10/10 10:01:13;;;;;;;9.52;4.43;;;16.10;99.90;;;;;;5057423;28;20052;-86
2022/10/10 10:03:39;;;;;;;11.23;4.90;;;15.80;99.90;;;;;;5059518;28;20091;-86
2022/10/10 10:06:11;;;;;;;7.40;3.75;;;15.60;99.90;;;;;;5058655;28;20076;-87
2022/10/10 10:08:37;;;;;;;;;;;15.50;99.90;;;;;;5052947;28;20053;-86
2022/10/10 10:11:04;;;;;;;8.20;4.82;;;15.40;99.90;;;;;;5021640;28;19925;-85
2022/10/10 10:13:35;;;;;;;11.30;5.32;;;15.50;99.90;;;;;;5056498;28;20237;-86
2022/10/10 10:16:08;;;;;;;6.80;4.40;;;15.40;99.90;;;;;;5055179;28;20055;-86
2022/10/10 10:18:45;;;;;;;11.60;5.07;;;15.40;99.90;;;;;;5048921;28;20080;-86
2022/10/10 10:21:15;;;;;;;9.13;4.72;;;15.30;99.90;;;;;;5040127;28;20084;-86
2022/10/10 10:23:40;;;;;;;9.90;5.15;;;15.30;99.90;;;;;;5040434;28;20049;-85
2022/10/10 10:26:14;;;;;;;10.57;4.95;;;15.30;99.90;;;;;;5040928;28;20058;-86
2022/10/10 10:28:41;;;;;;;9.10;4.85;;;15.30;99.90;;;;;;5040278;28;20632;-86
2022/10/10 10:31:22;;;;;;;6.28;4.38;;;15.30;99.90;;;;;;5059827;28;20107;-86
2022/10/10 10:34:17;;;;;;;11.18;6.13;;;15.30;99.90;;;;;;5061161;28;20049;-86
2022/10/10 10:36:53;;;;;;;10.20;4.80;;;15.30;99.90;;;;;;5059826;28;20057;-86
2022/10/10 10:39:42;;;;;;;11.68;5.28;;;15.30;99.90;;;;;;5060058;28;20521;-86
2022/10/10 10:42:11;;;;;;;7.90;4.88;;;15.30;99.90;;;;;;5055311;28;20049;-86
2022/10/10 10:45:01;;;;;;;13.23;5.32;;;15.30;99.90;;;;;;5043351;28;20457;-87
2022/10/10 10:47:52;;;;;;;9.15;5.07;;;15.30;99.90;;;;;;5052257;28;20072;-86
2022/10/10 10:50:26;;;;;;;7.67;5.03;;;15.30;99.90;;;;;;5059633;28;20108;-87
2022/10/10 10:52:54;;;;;;;8.95;5.07;;;15.40;99.90;;;;;;5042764;28;20128;-86
2022/10/10 10:55:35;;;;;;;8.00;4.68;;;15.40;99.90;;;;;;5047837;28;20052;-87
2022/10/10 10:58:28;;;;;;;12.55;5.40;;;15.40;99.90;;;;;;5056481;28;20061;-86
2022/10/10 11:01:03;;;;;;;7.57;4.63;;;15.40;99.90;;;;;;5039823;28;20045;-86
2022/10/10 11:03:48;;;;;;;12.05;4.95;;;15.40;99.90;;;;;;5024636;28;20041;-87
2022/10/10 11:06:39;;;;;;;8.98;4.97;;;15.40;99.90;;;;;;5039874;28;20053;-87
2022/10/10 11:09:49;;;;;;;8.02;4.50;;;15.40;99.90;;;;;;5023540;28;20041;-87
2022/10/10 11:12:32;;;;;;;11.85;4.35;;;15.40;99.90;;;;;;5042507;28;20074;-86
2022/10/10 11:15:01;;;;;;;7.18;4.72;;;15.50;99.90;;;;;;5058515;28;20060;-86
2022/10/10 11:17:45;;;;;;;8.15;4.15;;;15.60;99.90;;;;;;5023416;28;20049;-86
2022/10/10 11:20:23;;;;;;;9.38;5.07;;;15.70;99.90;;;;;;5025767;28;20108;-86
2022/10/10 11:22:56;;;;;;;7.53;4.80;;;15.70;99.90;;;;;;5039769;28;20128;-86
2022/10/10 11:25:28;;;;;;;11.77;5.75;;;15.80;99.90;;;;;;5039736;28;20046;-86
2022/10/10 11:28:26;;;;;;;8.35;4.15;;;15.80;99.90;;;;;;5056235;28;20041;-85
2022/10/10 11:31:07;;;;;;;9.30;4.90;;;16.00;99.90;;;;;;5032971;28;20064;-87
2022/10/10 11:33:39;;;;;;;7.63;4.75;;;16.20;99.90;;;;;;5059907;28;20072;-86
2022/10/10 11:36:14;;;;;;;6.18;4.32;;;16.30;99.90;;;;;;5042361;28;20042;-86
2022/10/10 11:38:51;;;;;;;9.45;5.00;;;16.20;99.90;;;;;;5059635;28;20053;-87
2022/10/10 11:41:38;;;;;;;7.78;5.07;;;16.10;99.90;;;;;;5052233;28;20408;-87
2022/10/10 11:44:12;;;;;;;8.35;4.72;;;16.00;99.90;;;;;;5022807;28;20100;-87
2022/10/10 11:46:49;;;;;;;9.52;4.78;;;15.80;99.90;;;;;;5023217;28;20057;-86
2022/10/10 11:49:30;;;;;;;12.00;5.22;;;15.60;99.90;;;;;;5021938;28;20129;-86
2022/10/10 11:51:56;;;;;;;16.83;5.65;;;15.50;99.90;;;;;;5046036;28;20052;-87
2022/10/10 11:54:50;;;;;;;9.77;4.75;;;15.30;99.90;;;;;;5058582;28;20045;-87
2022/10/10 11:57:29;;;;;;;11.80;4.65;;;15.20;99.90;;;;;;5042085;28;20205;-87
2022/10/10 12:00:00;;;;;;;8.65;4.47;;;15.10;99.90;;;;;;5059274;28;20714;-86
2022/10/10 12:02:39;;;;;;;13.55;5.63;;;15.10;99.90;;;;;;5049874;28;20053;-86
2022/10/10 12:05:06;;;;;;;9.85;4.32;;;15.10;99.90;;;;;;5040199;28;20065;-87
2022/10/10 12:07:56;;;;;;;10.30;5.10;;;15.10;99.90;;;;;;5022179;28;20053;-86
2022/10/10 12:10:29;;;;;;;9.65;3.75;;;15.10;99.90;;;;;;5038118;28;20053;-85
2022/10/10 12:13:02;;;;;;;12.60;4.60;;;15.00;99.90;;;;;;5040076;28;20060;-86
2022/10/10 12:15:36;;;;;;;10.45;4.63;;;15.00;99.90;;;;;;5038112;28;20045;-85
2022/10/10 12:18:02;;;;;;;8.38;4.38;;;15.00;99.90;;;;;;5039029;28;20049;-86
2022/10/10 12:20:30;;;;;;;10.75;4.22;;;15.00;99.90;;;;;;5021670;28;20484;-86
2022/10/10 12:23:31;;;;;;;11.90;4.72;;;15.00;99.90;;;;;;5071979;28;20045;-86
2022/10/10 12:25:57;;;;;;;8.55;4.22;;;15.00;99.90;;;;;;5058508;28;20057;-86
2022/10/10 12:28:25;;;;;;;12.02;3.95;;;15.00;99.90;;;;;;5058102;28;20045;-86
2022/10/10 12:30:51;;;;;;;7.63;4.78;;;15.00;99.90;;;;;;5060129;28;20053;-86
2022/10/10 12:33:42;;;;;;;9.90;4.57;;;15.00;99.90;;;;;;5058683;28;20048;-86
2022/10/10 12:36:55;;;;;;;12.67;5.10;;;15.00;99.90;;;;;;5039061;28;20057;-86
2022/10/10 12:39:20;;;;;;;8.63;5.20;;;15.00;99.90;;;;;;5040357;28;20494;-86
2022/10/10 12:41:49;;;;;;;12.38;5.57;;;14.80;99.90;;;;;;5038312;28;20057;-86
2022/10/10 12:44:19;;;;;;;13.18;5.28;;;14.80;99.90;;;;;;5043310;28;20041;-86
2022/10/10 12:46:48;;;;;;;10.57;5.30;;;14.80;99.90;;;;;;5059184;28;20056;-86
2022/10/10 12:49:22;;;;;;;12.40;6.60;;;14.70;99.90;;;;;;5041637;28;20045;-87
2022/10/10 12:52:19;;;;;;;13.57;6.38;;;14.60;99.90;;;;;;5041898;28;20049;-86
2022/10/10 12:54:46;;;;;;;17.77;5.88;;;14.60;99.90;;;;;;5057109;28;20064;-86
2022/10/10 12:57:18;;;;;;;10.88;6.25;;;14.50;99.90;;;;;;5041726;28;20051;-88
2022/10/10 12:59:43;;;;;;;14.48;6.82;;;14.50;99.90;;;;;;5058551;28;20055;-86
2022/10/10 13:02:18;;;;;;;12.82;6.22;;;14.40;99.90;;;;;;5057317;28;20045;-87
2022/10/10 13:04:46;;;;;;;11.32;6.57;;;14.40;99.90;;;;;;5057343;28;20049;-88
2022/10/10 13:07:19;;;;;;;15.20;7.03;;;14.30;99.90;;;;;;5034316;28;20053;-87
2022/10/10 13:09:47;;;;;;;13.55;6.75;;;14.30;99.90;;;;;;5037956;28;20052;-87